sensor_id;sensor_type;location;lat;lon;timestamp;P1;durP1;ratioP1;P2;durP2;ratioP2
44145;SDS011;29809;52.432;4.780;2022-08-19T00:00:00;3.45;;;2.53;;
44145;SDS011;29809;52.432;4.780;2022-08-19T00:02:26;2.53;;;2.33;;
44145;SDS011;29809;52.432;4.780;2022-08-19T00:04:51;3.97;;;2.97;;
44145;SDS011;29809;52.432;4.780;2022-08-19T00:07:20;4.30;;;3.25;;
44145;SDS011;29809;52.432;4.780;2022-08-19T00:09:45;4.28;;;2.90;;
44145;SDS011;29809;52.432;4.780;2022-08-19T00:12:10;4.70;;;3.17;;
44145;SDS011;29809;52.432;4.780;2022-08-19T00:14:36;8.02;;;3.17;;
44145;SDS011;29809;52.432;4.780;2022-08-19T00:17:03;3.80;;;2.83;;
44145;SDS011;29809;52.432;4.780;2022-08-19T00:19:28;5.22;;;3.03;;
44145;SDS011;29809;52.432;4.780;2022-08-19T00:21:53;5.78;;;3.38;;
44145;SDS011;29809;52.432;4.780;2022-08-19T00:24:21;3.30;;;2.53;;
44145;SDS011;29809;52.432;4.780;2022-08-19T00:26:46;5.28;;;3.05;;
44145;SDS011;29809;52.432;4.780;2022-08-19T00:29:13;6.53;;;3.33;;
44145;SDS011;29809;52.432;4.780;2022-08-19T00:31:39;4.22;;;3.20;;
44145;SDS011;29809;52.432;4.780;2022-08-19T00:34:04;5.00;;;3.33;;
44145;SDS011;29809;52.432;4.780;2022-08-19T00:36:29;10.40;;;3.67;;
44145;SDS011;29809;52.432;4.780;2022-08-19T00:38:55;5.47;;;3.20;;
44145;SDS011;29809;52.432;4.780;2022-08-19T00:41:21;7.22;;;4.10;;
44145;SDS011;29809;52.432;4.780;2022-08-19T00:44:01;4.93;;;3.70;;
44145;SDS011;29809;52.432;4.780;2022-08-19T00:46:27;6.13;;;3.80;;
44145;SDS011;29809;52.432;4.780;2022-08-19T00:48:52;6.30;;;3.72;;
44145;SDS011;29809;52.432;4.780;2022-08-19T00:51:18;6.45;;;4.28;;
44145;SDS011;29809;52.432;4.780;2022-08-19T00:53:43;5.20;;;4.63;;
44145;SDS011;29809;52.432;4.780;2022-08-19T00:56:08;6.07;;;5.47;;
44145;SDS011;29809;52.432;4.780;2022-08-19T00:58:34;6.10;;;5.35;;
44145;SDS011;29809;52.432;4.780;2022-08-19T01:01:01;5.70;;;5.22;;
44145;SDS011;29809;52.432;4.780;2022-08-19T01:03:26;6.15;;;5.55;;
44145;SDS011;29809;52.432;4.780;2022-08-19T01:05:52;5.13;;;4.70;;
44145;SDS011;29809;52.432;4.780;2022-08-19T01:08:19;5.32;;;4.82;;
44145;SDS011;29809;52.432;4.780;2022-08-19T01:10:46;6.00;;;5.38;;
44145;SDS011;29809;52.432;4.780;2022-08-19T01:13:13;6.18;;;5.57;;
44145;SDS011;29809;52.432;4.780;2022-08-19T01:15:43;6.97;;;5.18;;
44145;SDS011;29809;52.432;4.780;2022-08-19T01:18:10;6.95;;;5.25;;
44145;SDS011;29809;52.432;4.780;2022-08-19T01:20:36;5.93;;;5.43;;
44145;SDS011;29809;52.432;4.780;2022-08-19T01:23:02;6.90;;;5.18;;
44145;SDS011;29809;52.432;4.780;2022-08-19T01:25:29;6.38;;;5.78;;
44145;SDS011;29809;52.432;4.780;2022-08-19T01:27:56;6.53;;;5.85;;
44145;SDS011;29809;52.432;4.780;2022-08-19T01:30:26;7.13;;;6.30;;
44145;SDS011;29809;52.432;4.780;2022-08-19T01:32:55;6.30;;;5.63;;
44145;SDS011;29809;52.432;4.780;2022-08-19T01:35:21;6.55;;;5.95;;
44145;SDS011;29809;52.432;4.780;2022-08-19T01:37:56;6.53;;;6.00;;
44145;SDS011;29809;52.432;4.780;2022-08-19T01:40:22;6.97;;;5.80;;
44145;SDS011;29809;52.432;4.780;2022-08-19T01:42:48;10.82;;;6.22;;
44145;SDS011;29809;52.432;4.780;2022-08-19T01:45:14;9.32;;;5.93;;
44145;SDS011;29809;52.432;4.780;2022-08-19T01:47:39;7.30;;;5.97;;
44145;SDS011;29809;52.432;4.780;2022-08-19T01:50:06;7.55;;;6.75;;
44145;SDS011;29809;52.432;4.780;2022-08-19T01:52:31;8.63;;;6.15;;
44145;SDS011;29809;52.432;4.780;2022-08-19T01:54:57;7.65;;;6.55;;
44145;SDS011;29809;52.432;4.780;2022-08-19T01:57:22;6.65;;;5.72;;
44145;SDS011;29809;52.432;4.780;2022-08-19T01:59:47;6.97;;;6.28;;
44145;SDS011;29809;52.432;4.780;2022-08-19T02:02:12;6.47;;;5.88;;
44145;SDS011;29809;52.432;4.780;2022-08-19T02:04:38;7.05;;;6.35;;
44145;SDS011;29809;52.432;4.780;2022-08-19T02:07:04;7.90;;;5.60;;
44145;SDS011;29809;52.432;4.780;2022-08-19T02:09:30;6.57;;;5.30;;
44145;SDS011;29809;52.432;4.780;2022-08-19T02:11:56;5.68;;;5.03;;
44145;SDS011;29809;52.432;4.780;2022-08-19T02:14:21;5.68;;;5.07;;
44145;SDS011;29809;52.432;4.780;2022-08-19T02:16:46;7.65;;;7.03;;
44145;SDS011;29809;52.432;4.780;2022-08-19T02:19:12;6.97;;;6.28;;
44145;SDS011;29809;52.432;4.780;2022-08-19T02:21:37;6.22;;;5.63;;
44145;SDS011;29809;52.432;4.780;2022-08-19T02:24:03;8.80;;;6.82;;
44145;SDS011;29809;52.432;4.780;2022-08-19T02:26:28;6.32;;;5.72;;
44145;SDS011;29809;52.432;4.780;2022-08-19T02:28:54;7.18;;;6.40;;
44145;SDS011;29809;52.432;4.780;2022-08-19T02:31:20;7.03;;;6.07;;
44145;SDS011;29809;52.432;4.780;2022-08-19T02:33:47;8.00;;;7.20;;
44145;SDS011;29809;52.432;4.780;2022-08-19T02:36:13;6.90;;;6.30;;
44145;SDS011;29809;52.432;4.780;2022-08-19T02:38:39;8.32;;;6.95;;
44145;SDS011;29809;52.432;4.780;2022-08-19T02:41:12;7.60;;;7.00;;
44145;SDS011;29809;52.432;4.780;2022-08-19T02:43:37;8.95;;;7.38;;
44145;SDS011;29809;52.432;4.780;2022-08-19T02:46:13;8.10;;;6.80;;
44145;SDS011;29809;52.432;4.780;2022-08-19T02:48:39;8.05;;;7.10;;
44145;SDS011;29809;52.432;4.780;2022-08-19T02:51:04;7.47;;;5.95;;
44145;SDS011;29809;52.432;4.780;2022-08-19T02:53:30;7.88;;;6.20;;
44145;SDS011;29809;52.432;4.780;2022-08-19T02:55:55;7.05;;;5.78;;
44145;SDS011;29809;52.432;4.780;2022-08-19T02:58:21;8.68;;;5.80;;
44145;SDS011;29809;52.432;4.780;2022-08-19T03:00:48;9.43;;;5.60;;
44145;SDS011;29809;52.432;4.780;2022-08-19T03:03:14;8.20;;;5.75;;
44145;SDS011;29809;52.432;4.780;2022-08-19T03:05:39;5.65;;;5.15;;
44145;SDS011;29809;52.432;4.780;2022-08-19T03:08:05;7.47;;;5.60;;
44145;SDS011;29809;52.432;4.780;2022-08-19T03:10:31;6.60;;;6.00;;
44145;SDS011;29809;52.432;4.780;2022-08-19T03:12:56;6.75;;;5.97;;
44145;SDS011;29809;52.432;4.780;2022-08-19T03:15:21;10.10;;;5.65;;
44145;SDS011;29809;52.432;4.780;2022-08-19T03:17:46;10.13;;;5.85;;
44145;SDS011;29809;52.432;4.780;2022-08-19T03:20:12;10.00;;;5.68;;
44145;SDS011;29809;52.432;4.780;2022-08-19T03:22:37;6.75;;;6.05;;
44145;SDS011;29809;52.432;4.780;2022-08-19T03:25:03;8.45;;;6.68;;
44145;SDS011;29809;52.432;4.780;2022-08-19T03:27:28;6.47;;;5.88;;
44145;SDS011;29809;52.432;4.780;2022-08-19T03:29:54;7.35;;;6.50;;
44145;SDS011;29809;52.432;4.780;2022-08-19T03:32:19;9.05;;;6.70;;
44145;SDS011;29809;52.432;4.780;2022-08-19T03:34:46;8.98;;;7.78;;
44145;SDS011;29809;52.432;4.780;2022-08-19T03:37:12;9.50;;;8.57;;
44145;SDS011;29809;52.432;4.780;2022-08-19T03:39:37;12.05;;;9.25;;
44145;SDS011;29809;52.432;4.780;2022-08-19T03:42:03;10.45;;;9.13;;
44145;SDS011;29809;52.432;4.780;2022-08-19T03:44:29;11.50;;;10.40;;
44145;SDS011;29809;52.432;4.780;2022-08-19T03:46:55;10.65;;;9.65;;
44145;SDS011;29809;52.432;4.780;2022-08-19T03:49:21;11.98;;;10.77;;
44145;SDS011;29809;52.432;4.780;2022-08-19T03:51:48;13.40;;;10.32;;
44145;SDS011;29809;52.432;4.780;2022-08-19T03:54:15;11.95;;;10.20;;
44145;SDS011;29809;52.432;4.780;2022-08-19T03:56:41;11.60;;;10.40;;
44145;SDS011;29809;52.432;4.780;2022-08-19T03:59:16;11.07;;;10.07;;
44145;SDS011;29809;52.432;4.780;2022-08-19T04:01:41;10.95;;;9.95;;
44145;SDS011;29809;52.432;4.780;2022-08-19T04:04:07;11.00;;;9.90;;
44145;SDS011;29809;52.432;4.780;2022-08-19T04:06:33;12.73;;;10.55;;
44145;SDS011;29809;52.432;4.780;2022-08-19T04:08:59;11.07;;;10.07;;
44145;SDS011;29809;52.432;4.780;2022-08-19T04:11:36;13.93;;;12.52;;
44145;SDS011;29809;52.432;4.780;2022-08-19T04:14:04;13.93;;;12.63;;
44145;SDS011;29809;52.432;4.780;2022-08-19T04:16:30;18.80;;;14.50;;
44145;SDS011;29809;52.432;4.780;2022-08-19T04:18:55;15.43;;;13.95;;
44145;SDS011;29809;52.432;4.780;2022-08-19T04:21:24;17.85;;;15.73;;
44145;SDS011;29809;52.432;4.780;2022-08-19T04:23:50;19.63;;;17.60;;
44145;SDS011;29809;52.432;4.780;2022-08-19T04:26:19;20.23;;;18.13;;
44145;SDS011;29809;52.432;4.780;2022-08-19T04:28:45;20.33;;;18.33;;
44145;SDS011;29809;52.432;4.780;2022-08-19T04:31:14;21.30;;;19.02;;
44145;SDS011;29809;52.432;4.780;2022-08-19T04:33:40;22.20;;;20.05;;
44145;SDS011;29809;52.432;4.780;2022-08-19T04:36:05;21.80;;;19.42;;
44145;SDS011;29809;52.432;4.780;2022-08-19T04:38:30;19.98;;;17.95;;
44145;SDS011;29809;52.432;4.780;2022-08-19T04:40:55;20.70;;;18.58;;
44145;SDS011;29809;52.432;4.780;2022-08-19T04:43:39;19.55;;;17.63;;
44145;SDS011;29809;52.432;4.780;2022-08-19T04:46:08;20.58;;;18.38;;
44145;SDS011;29809;52.432;4.780;2022-08-19T04:48:35;21.63;;;19.52;;
44145;SDS011;29809;52.432;4.780;2022-08-19T04:51:00;21.20;;;19.02;;
44145;SDS011;29809;52.432;4.780;2022-08-19T04:53:26;21.60;;;18.85;;
44145;SDS011;29809;52.432;4.780;2022-08-19T04:55:53;21.55;;;19.45;;
44145;SDS011;29809;52.432;4.780;2022-08-19T04:58:18;24.83;;;20.42;;
44145;SDS011;29809;52.432;4.780;2022-08-19T05:00:44;22.67;;;20.17;;
44145;SDS011;29809;52.432;4.780;2022-08-19T05:03:09;21.67;;;19.33;;
44145;SDS011;29809;52.432;4.780;2022-08-19T05:05:38;21.60;;;19.48;;
44145;SDS011;29809;52.432;4.780;2022-08-19T05:08:03;21.08;;;18.88;;
44145;SDS011;29809;52.432;4.780;2022-08-19T05:10:28;20.75;;;18.67;;
44145;SDS011;29809;52.432;4.780;2022-08-19T05:12:55;22.77;;;18.67;;
44145;SDS011;29809;52.432;4.780;2022-08-19T05:15:20;21.35;;;17.25;;
44145;SDS011;29809;52.432;4.780;2022-08-19T05:17:45;22.10;;;16.92;;
44145;SDS011;29809;52.432;4.780;2022-08-19T05:20:30;17.98;;;16.15;;
44145;SDS011;29809;52.432;4.780;2022-08-19T05:23:14;17.77;;;16.08;;
44145;SDS011;29809;52.432;4.780;2022-08-19T05:25:41;21.23;;;17.77;;
44145;SDS011;29809;52.432;4.780;2022-08-19T05:28:07;19.45;;;17.33;;
44145;SDS011;29809;52.432;4.780;2022-08-19T05:30:32;21.08;;;16.80;;
44145;SDS011;29809;52.432;4.780;2022-08-19T05:32:59;19.80;;;16.58;;
44145;SDS011;29809;52.432;4.780;2022-08-19T05:35:24;189.02;;;66.55;;
44145;SDS011;29809;52.432;4.780;2022-08-19T05:37:49;116.57;;;48.45;;
44145;SDS011;29809;52.432;4.780;2022-08-19T05:40:15;73.63;;;31.45;;
44145;SDS011;29809;52.432;4.780;2022-08-19T05:42:40;45.58;;;26.52;;
44145;SDS011;29809;52.432;4.780;2022-08-19T05:45:06;31.05;;;23.88;;
44145;SDS011;29809;52.432;4.780;2022-08-19T05:47:31;34.97;;;26.50;;
44145;SDS011;29809;52.432;4.780;2022-08-19T05:49:57;27.60;;;24.70;;
44145;SDS011;29809;52.432;4.780;2022-08-19T05:52:22;24.55;;;21.92;;
44145;SDS011;29809;52.432;4.780;2022-08-19T05:54:47;25.13;;;21.92;;
44145;SDS011;29809;52.432;4.780;2022-08-19T05:57:13;27.17;;;21.05;;
44145;SDS011;29809;52.432;4.780;2022-08-19T05:59:38;27.15;;;22.55;;
44145;SDS011;29809;52.432;4.780;2022-08-19T06:02:04;24.95;;;20.80;;
44145;SDS011;29809;52.432;4.780;2022-08-19T06:04:29;24.95;;;21.67;;
44145;SDS011;29809;52.432;4.780;2022-08-19T06:06:55;22.90;;;20.30;;
44145;SDS011;29809;52.432;4.780;2022-08-19T06:09:22;22.00;;;19.75;;
44145;SDS011;29809;52.432;4.780;2022-08-19T06:11:48;23.95;;;20.65;;
44145;SDS011;29809;52.432;4.780;2022-08-19T06:14:15;22.08;;;19.75;;
44145;SDS011;29809;52.432;4.780;2022-08-19T06:16:42;26.27;;;20.58;;
44145;SDS011;29809;52.432;4.780;2022-08-19T06:19:12;26.55;;;21.75;;
44145;SDS011;29809;52.432;4.780;2022-08-19T06:21:39;23.35;;;20.75;;
44145;SDS011;29809;52.432;4.780;2022-08-19T06:24:06;28.27;;;22.30;;
44145;SDS011;29809;52.432;4.780;2022-08-19T06:26:33;32.15;;;23.40;;
44145;SDS011;29809;52.432;4.780;2022-08-19T06:28:59;31.73;;;23.45;;
44145;SDS011;29809;52.432;4.780;2022-08-19T06:31:26;33.03;;;24.05;;
44145;SDS011;29809;52.432;4.780;2022-08-19T06:33:52;28.65;;;24.13;;
44145;SDS011;29809;52.432;4.780;2022-08-19T06:36:25;31.00;;;24.20;;
44145;SDS011;29809;52.432;4.780;2022-08-19T06:38:55;36.65;;;24.85;;
44145;SDS011;29809;52.432;4.780;2022-08-19T06:41:20;28.80;;;24.50;;
44145;SDS011;29809;52.432;4.780;2022-08-19T06:43:45;31.38;;;25.23;;
44145;SDS011;29809;52.432;4.780;2022-08-19T06:46:13;31.83;;;24.08;;
44145;SDS011;29809;52.432;4.780;2022-08-19T06:48:39;27.02;;;23.05;;
44145;SDS011;29809;52.432;4.780;2022-08-19T06:51:04;26.90;;;22.17;;
44145;SDS011;29809;52.432;4.780;2022-08-19T06:53:31;30.63;;;24.75;;
44145;SDS011;29809;52.432;4.780;2022-08-19T06:55:56;29.20;;;21.67;;
44145;SDS011;29809;52.432;4.780;2022-08-19T06:58:25;27.50;;;23.42;;
44145;SDS011;29809;52.432;4.780;2022-08-19T07:00:50;26.15;;;21.75;;
44145;SDS011;29809;52.432;4.780;2022-08-19T07:03:16;28.55;;;21.77;;
44145;SDS011;29809;52.432;4.780;2022-08-19T07:05:41;34.00;;;23.55;;
44145;SDS011;29809;52.432;4.780;2022-08-19T07:08:07;27.98;;;22.17;;
44145;SDS011;29809;52.432;4.780;2022-08-19T07:10:32;28.95;;;21.83;;
44145;SDS011;29809;52.432;4.780;2022-08-19T07:12:59;26.73;;;19.77;;
44145;SDS011;29809;52.432;4.780;2022-08-19T07:15:25;26.30;;;20.42;;
44145;SDS011;29809;52.432;4.780;2022-08-19T07:17:50;26.52;;;21.08;;
44145;SDS011;29809;52.432;4.780;2022-08-19T07:20:16;28.98;;;20.67;;
44145;SDS011;29809;52.432;4.780;2022-08-19T07:22:41;23.58;;;18.50;;
44145;SDS011;29809;52.432;4.780;2022-08-19T07:25:07;26.20;;;20.15;;
44145;SDS011;29809;52.432;4.780;2022-08-19T07:27:33;24.02;;;18.17;;
44145;SDS011;29809;52.432;4.780;2022-08-19T07:29:59;26.58;;;17.67;;
44145;SDS011;29809;52.432;4.780;2022-08-19T07:32:24;24.75;;;18.27;;
44145;SDS011;29809;52.432;4.780;2022-08-19T07:34:53;21.30;;;16.20;;
44145;SDS011;29809;52.432;4.780;2022-08-19T07:37:18;21.50;;;16.73;;
44145;SDS011;29809;52.432;4.780;2022-08-19T07:39:43;23.70;;;16.52;;
44145;SDS011;29809;52.432;4.780;2022-08-19T07:42:09;24.92;;;17.02;;
44145;SDS011;29809;52.432;4.780;2022-08-19T07:44:35;27.85;;;17.63;;
44145;SDS011;29809;52.432;4.780;2022-08-19T07:47:00;21.60;;;16.52;;
44145;SDS011;29809;52.432;4.780;2022-08-19T07:49:26;20.45;;;16.60;;
44145;SDS011;29809;52.432;4.780;2022-08-19T07:51:59;22.98;;;16.17;;
44145;SDS011;29809;52.432;4.780;2022-08-19T07:54:27;22.40;;;16.70;;
44145;SDS011;29809;52.432;4.780;2022-08-19T07:56:52;23.25;;;15.55;;
44145;SDS011;29809;52.432;4.780;2022-08-19T07:59:18;22.30;;;16.20;;
44145;SDS011;29809;52.432;4.780;2022-08-19T08:01:44;24.25;;;16.17;;
44145;SDS011;29809;52.432;4.780;2022-08-19T08:04:09;19.20;;;14.23;;
44145;SDS011;29809;52.432;4.780;2022-08-19T08:06:54;21.70;;;13.38;;
44145;SDS011;29809;52.432;4.780;2022-08-19T08:09:39;17.27;;;11.82;;
44145;SDS011;29809;52.432;4.780;2022-08-19T08:12:09;17.48;;;11.13;;
44145;SDS011;29809;52.432;4.780;2022-08-19T08:14:38;11.60;;;9.10;;
44145;SDS011;29809;52.432;4.780;2022-08-19T08:17:04;13.27;;;7.78;;
44145;SDS011;29809;52.432;4.780;2022-08-19T08:19:30;11.90;;;5.72;;
44145;SDS011;29809;52.432;4.780;2022-08-19T08:21:56;16.20;;;7.15;;
44145;SDS011;29809;52.432;4.780;2022-08-19T08:24:21;11.88;;;6.90;;
44145;SDS011;29809;52.432;4.780;2022-08-19T08:26:47;11.55;;;6.70;;
44145;SDS011;29809;52.432;4.780;2022-08-19T08:29:13;10.13;;;5.93;;
44145;SDS011;29809;52.432;4.780;2022-08-19T08:31:39;21.33;;;14.55;;
44145;SDS011;29809;52.432;4.780;2022-08-19T08:34:04;20.13;;;11.73;;
44145;SDS011;29809;52.432;4.780;2022-08-19T08:36:30;18.48;;;9.50;;
44145;SDS011;29809;52.432;4.780;2022-08-19T08:38:58;18.27;;;9.38;;
44145;SDS011;29809;52.432;4.780;2022-08-19T08:43:53;8.93;;;6.53;;
44145;SDS011;29809;52.432;4.780;2022-08-19T08:46:35;12.35;;;6.60;;
44145;SDS011;29809;52.432;4.780;2022-08-19T08:49:10;11.25;;;6.78;;
44145;SDS011;29809;52.432;4.780;2022-08-19T08:51:59;12.98;;;6.93;;
44145;SDS011;29809;52.432;4.780;2022-08-19T08:54:28;11.85;;;6.03;;
44145;SDS011;29809;52.432;4.780;2022-08-19T08:56:55;9.93;;;6.68;;
44145;SDS011;29809;52.432;4.780;2022-08-19T08:59:26;8.18;;;5.63;;
44145;SDS011;29809;52.432;4.780;2022-08-19T09:01:53;9.32;;;6.47;;
44145;SDS011;29809;52.432;4.780;2022-08-19T09:04:18;9.32;;;6.78;;
44145;SDS011;29809;52.432;4.780;2022-08-19T09:09:30;9.02;;;6.55;;
44145;SDS011;29809;52.432;4.780;2022-08-19T09:17:08;12.13;;;7.13;;
44145;SDS011;29809;52.432;4.780;2022-08-19T09:19:55;11.75;;;7.18;;
44145;SDS011;29809;52.432;4.780;2022-08-19T09:22:19;11.75;;;6.63;;
44145;SDS011;29809;52.432;4.780;2022-08-19T09:24:47;11.88;;;6.53;;
44145;SDS011;29809;52.432;4.780;2022-08-19T09:27:12;11.80;;;7.03;;
44145;SDS011;29809;52.432;4.780;2022-08-19T09:29:37;10.82;;;6.10;;
44145;SDS011;29809;52.432;4.780;2022-08-19T09:32:03;9.45;;;6.35;;
44145;SDS011;29809;52.432;4.780;2022-08-19T09:34:28;12.18;;;6.57;;
44145;SDS011;29809;52.432;4.780;2022-08-19T09:36:54;9.32;;;6.45;;
44145;SDS011;29809;52.432;4.780;2022-08-19T09:39:23;13.13;;;6.95;;
44145;SDS011;29809;52.432;4.780;2022-08-19T09:41:48;12.45;;;6.90;;
44145;SDS011;29809;52.432;4.780;2022-08-19T09:44:14;9.60;;;6.40;;
44145;SDS011;29809;52.432;4.780;2022-08-19T09:46:41;13.13;;;6.60;;
44145;SDS011;29809;52.432;4.780;2022-08-19T09:49:11;12.18;;;7.10;;
44145;SDS011;29809;52.432;4.780;2022-08-19T09:51:37;11.35;;;7.38;;
44145;SDS011;29809;52.432;4.780;2022-08-19T09:54:02;15.95;;;6.88;;
44145;SDS011;29809;52.432;4.780;2022-08-19T09:56:28;9.65;;;6.60;;
44145;SDS011;29809;52.432;4.780;2022-08-19T09:58:54;11.05;;;6.53;;
44145;SDS011;29809;52.432;4.780;2022-08-19T10:01:24;13.05;;;6.63;;
44145;SDS011;29809;52.432;4.780;2022-08-19T10:03:50;11.57;;;6.93;;
44145;SDS011;29809;52.432;4.780;2022-08-19T10:06:17;8.82;;;6.45;;
44145;SDS011;29809;52.432;4.780;2022-08-19T10:08:43;11.50;;;6.38;;
44145;SDS011;29809;52.432;4.780;2022-08-19T10:11:08;10.52;;;6.00;;
44145;SDS011;29809;52.432;4.780;2022-08-19T10:13:34;10.25;;;5.78;;
44145;SDS011;29809;52.432;4.780;2022-08-19T10:16:04;11.23;;;6.03;;
44145;SDS011;29809;52.432;4.780;2022-08-19T10:18:29;7.50;;;6.05;;
44145;SDS011;29809;52.432;4.780;2022-08-19T10:21:02;7.80;;;5.47;;
44145;SDS011;29809;52.432;4.780;2022-08-19T10:23:35;11.63;;;5.78;;
44145;SDS011;29809;52.432;4.780;2022-08-19T10:26:01;10.00;;;5.22;;
44145;SDS011;29809;52.432;4.780;2022-08-19T10:28:26;14.13;;;6.00;;
44145;SDS011;29809;52.432;4.780;2022-08-19T10:30:51;8.50;;;4.88;;
44145;SDS011;29809;52.432;4.780;2022-08-19T10:33:18;7.68;;;4.38;;
44145;SDS011;29809;52.432;4.780;2022-08-19T10:35:43;11.05;;;4.57;;
44145;SDS011;29809;52.432;4.780;2022-08-19T10:38:09;7.28;;;4.10;;
44145;SDS011;29809;52.432;4.780;2022-08-19T10:40:34;5.07;;;3.90;;
44145;SDS011;29809;52.432;4.780;2022-08-19T10:42:59;4.93;;;4.13;;
44145;SDS011;29809;52.432;4.780;2022-08-19T10:45:25;10.65;;;4.75;;
44145;SDS011;29809;52.432;4.780;2022-08-19T10:47:54;8.00;;;4.82;;
44145;SDS011;29809;52.432;4.780;2022-08-19T10:50:19;8.60;;;4.32;;
44145;SDS011;29809;52.432;4.780;2022-08-19T10:53:07;8.20;;;4.45;;
44145;SDS011;29809;52.432;4.780;2022-08-19T10:55:35;6.55;;;3.55;;
44145;SDS011;29809;52.432;4.780;2022-08-19T10:58:20;8.30;;;3.80;;
44145;SDS011;29809;52.432;4.780;2022-08-19T11:00:51;5.47;;;3.97;;
44145;SDS011;29809;52.432;4.780;2022-08-19T11:03:16;7.80;;;3.72;;
44145;SDS011;29809;52.432;4.780;2022-08-19T11:05:42;7.97;;;3.90;;
44145;SDS011;29809;52.432;4.780;2022-08-19T11:08:08;6.30;;;4.05;;
44145;SDS011;29809;52.432;4.780;2022-08-19T11:10:36;6.05;;;4.03;;
44145;SDS011;29809;52.432;4.780;2022-08-19T11:13:01;7.13;;;3.90;;
44145;SDS011;29809;52.432;4.780;2022-08-19T11:15:27;5.25;;;4.28;;
44145;SDS011;29809;52.432;4.780;2022-08-19T11:17:53;5.13;;;4.20;;
44145;SDS011;29809;52.432;4.780;2022-08-19T11:20:19;5.35;;;4.20;;
44145;SDS011;29809;52.432;4.780;2022-08-19T11:22:44;5.45;;;4.03;;
44145;SDS011;29809;52.432;4.780;2022-08-19T11:25:10;7.00;;;4.20;;
44145;SDS011;29809;52.432;4.780;2022-08-19T11:27:39;8.10;;;3.75;;
44145;SDS011;29809;52.432;4.780;2022-08-19T11:30:07;9.75;;;4.72;;
44145;SDS011;29809;52.432;4.780;2022-08-19T11:32:32;5.65;;;3.83;;
44145;SDS011;29809;52.432;4.780;2022-08-19T11:34:58;4.70;;;3.53;;
44145;SDS011;29809;52.432;4.780;2022-08-19T11:37:23;5.43;;;3.60;;
44145;SDS011;29809;52.432;4.780;2022-08-19T11:39:49;4.90;;;3.92;;
44145;SDS011;29809;52.432;4.780;2022-08-19T11:42:14;5.70;;;3.60;;
44145;SDS011;29809;52.432;4.780;2022-08-19T11:44:58;6.55;;;4.03;;
44145;SDS011;29809;52.432;4.780;2022-08-19T11:47:23;7.22;;;3.92;;
44145;SDS011;29809;52.432;4.780;2022-08-19T11:49:48;4.63;;;3.70;;
44145;SDS011;29809;52.432;4.780;2022-08-19T11:52:14;6.05;;;3.70;;
44145;SDS011;29809;52.432;4.780;2022-08-19T11:54:40;3.88;;;2.97;;
44145;SDS011;29809;52.432;4.780;2022-08-19T11:57:05;8.23;;;3.08;;
44145;SDS011;29809;52.432;4.780;2022-08-19T11:59:30;4.65;;;3.00;;
44145;SDS011;29809;52.432;4.780;2022-08-19T12:01:55;5.45;;;2.38;;
44145;SDS011;29809;52.432;4.780;2022-08-19T12:04:25;3.75;;;2.15;;
44145;SDS011;29809;52.432;4.780;2022-08-19T12:06:50;3.55;;;2.10;;
44145;SDS011;29809;52.432;4.780;2022-08-19T12:09:15;4.53;;;2.20;;
44145;SDS011;29809;52.432;4.780;2022-08-19T12:11:41;4.78;;;2.17;;
44145;SDS011;29809;52.432;4.780;2022-08-19T12:14:06;5.82;;;2.25;;
44145;SDS011;29809;52.432;4.780;2022-08-19T12:16:32;3.85;;;2.00;;
44145;SDS011;29809;52.432;4.780;2022-08-19T12:18:57;5.60;;;2.10;;
44145;SDS011;29809;52.432;4.780;2022-08-19T12:21:28;4.35;;;2.30;;
44145;SDS011;29809;52.432;4.780;2022-08-19T12:23:53;3.15;;;2.15;;
44145;SDS011;29809;52.432;4.780;2022-08-19T12:26:19;2.42;;;1.92;;
44145;SDS011;29809;52.432;4.780;2022-08-19T12:28:45;2.88;;;1.95;;
44145;SDS011;29809;52.432;4.780;2022-08-19T12:31:10;3.42;;;1.83;;
44145;SDS011;29809;52.432;4.780;2022-08-19T12:33:39;2.92;;;1.83;;
44145;SDS011;29809;52.432;4.780;2022-08-19T12:36:06;2.00;;;1.80;;
44145;SDS011;29809;52.432;4.780;2022-08-19T12:38:32;4.18;;;1.85;;
44145;SDS011;29809;52.432;4.780;2022-08-19T12:40:57;2.80;;;1.33;;
44145;SDS011;29809;52.432;4.780;2022-08-19T12:43:22;3.10;;;1.80;;
44145;SDS011;29809;52.432;4.780;2022-08-19T12:45:48;5.97;;;1.80;;
44145;SDS011;29809;52.432;4.780;2022-08-19T12:48:13;2.72;;;1.70;;
44145;SDS011;29809;52.432;4.780;2022-08-19T12:50:42;2.92;;;1.60;;
44145;SDS011;29809;52.432;4.780;2022-08-19T12:53:09;1.90;;;1.52;;
44145;SDS011;29809;52.432;4.780;2022-08-19T12:55:35;3.85;;;1.58;;
44145;SDS011;29809;52.432;4.780;2022-08-19T12:58:00;4.13;;;1.70;;
44145;SDS011;29809;52.432;4.780;2022-08-19T13:00:28;3.28;;;1.75;;
44145;SDS011;29809;52.432;4.780;2022-08-19T13:02:53;1.73;;;1.38;;
44145;SDS011;29809;52.432;4.780;2022-08-19T13:05:20;2.42;;;1.40;;
44145;SDS011;29809;52.432;4.780;2022-08-19T13:07:47;3.05;;;1.40;;
44145;SDS011;29809;52.432;4.780;2022-08-19T13:10:14;3.35;;;1.40;;
44145;SDS011;29809;52.432;4.780;2022-08-19T13:12:40;2.65;;;1.30;;
44145;SDS011;29809;52.432;4.780;2022-08-19T13:15:06;2.92;;;1.45;;
44145;SDS011;29809;52.432;4.780;2022-08-19T13:17:33;2.10;;;1.42;;
44145;SDS011;29809;52.432;4.780;2022-08-19T13:19:59;3.08;;;1.33;;
44145;SDS011;29809;52.432;4.780;2022-08-19T13:22:24;2.47;;;1.00;;
44145;SDS011;29809;52.432;4.780;2022-08-19T13:24:49;4.18;;;1.58;;
44145;SDS011;29809;52.432;4.780;2022-08-19T13:27:15;1.75;;;1.13;;
44145;SDS011;29809;52.432;4.780;2022-08-19T13:29:41;2.47;;;1.13;;
44145;SDS011;29809;52.432;4.780;2022-08-19T13:32:24;1.42;;;1.25;;
44145;SDS011;29809;52.432;4.780;2022-08-19T13:35:08;2.30;;;1.27;;
44145;SDS011;29809;52.432;4.780;2022-08-19T13:37:34;3.30;;;1.30;;
44145;SDS011;29809;52.432;4.780;2022-08-19T13:40:09;1.23;;;1.08;;
44145;SDS011;29809;52.432;4.780;2022-08-19T13:42:39;2.50;;;1.30;;
44145;SDS011;29809;52.432;4.780;2022-08-19T13:45:05;3.50;;;1.55;;
44145;SDS011;29809;52.432;4.780;2022-08-19T13:47:31;2.38;;;1.38;;
44145;SDS011;29809;52.432;4.780;2022-08-19T13:49:57;1.58;;;1.10;;
44145;SDS011;29809;52.432;4.780;2022-08-19T13:52:22;3.13;;;1.30;;
44145;SDS011;29809;52.432;4.780;2022-08-19T13:54:47;2.47;;;1.27;;
44145;SDS011;29809;52.432;4.780;2022-08-19T13:57:13;2.22;;;1.15;;
44145;SDS011;29809;52.432;4.780;2022-08-19T13:59:38;2.30;;;1.00;;
44145;SDS011;29809;52.432;4.780;2022-08-19T14:02:04;3.45;;;1.35;;
44145;SDS011;29809;52.432;4.780;2022-08-19T14:04:30;2.58;;;1.23;;
44145;SDS011;29809;52.432;4.780;2022-08-19T14:06:55;2.60;;;1.40;;
44145;SDS011;29809;52.432;4.780;2022-08-19T14:09:20;3.33;;;1.40;;
44145;SDS011;29809;52.432;4.780;2022-08-19T14:11:46;1.90;;;1.20;;
44145;SDS011;29809;52.432;4.780;2022-08-19T14:14:11;4.22;;;1.67;;
44145;SDS011;29809;52.432;4.780;2022-08-19T14:16:37;1.40;;;1.08;;
44145;SDS011;29809;52.432;4.780;2022-08-19T14:19:02;3.70;;;1.48;;
44145;SDS011;29809;52.432;4.780;2022-08-19T14:21:27;1.45;;;1.30;;
44145;SDS011;29809;52.432;4.780;2022-08-19T14:23:53;0.90;;;0.90;;
44145;SDS011;29809;52.432;4.780;2022-08-19T14:26:18;1.95;;;1.40;;
44145;SDS011;29809;52.432;4.780;2022-08-19T14:28:44;2.38;;;1.60;;
44145;SDS011;29809;52.432;4.780;2022-08-19T14:31:14;2.13;;;1.40;;
44145;SDS011;29809;52.432;4.780;2022-08-19T14:33:43;2.65;;;1.63;;
44145;SDS011;29809;52.432;4.780;2022-08-19T14:36:08;2.72;;;1.65;;
44145;SDS011;29809;52.432;4.780;2022-08-19T14:38:33;5.13;;;1.70;;
44145;SDS011;29809;52.432;4.780;2022-08-19T14:41:15;2.47;;;1.23;;
44145;SDS011;29809;52.432;4.780;2022-08-19T14:43:42;1.92;;;1.33;;
44145;SDS011;29809;52.432;4.780;2022-08-19T14:46:10;2.40;;;1.50;;